sensor_id;sensor_type;location;lat;lon;timestamp;P1;durP1;ratioP1;P2;durP2;ratioP2
14734;SDS011;7458;49.002;8.472;2022-09-17T00:01:01;1257.90;;;999.90;;
14734;SDS011;7458;49.002;8.472;2022-09-17T00:03:29;1251.75;;;999.90;;
14734;SDS011;7458;49.002;8.472;2022-09-17T00:06:13;1256.68;;;999.90;;
14734;SDS011;7458;49.002;8.472;2022-09-17T00:08:40;1257.13;;;999.90;;
14734;SDS011;7458;49.002;8.472;2022-09-17T00:11:13;1260.55;;;999.90;;
14734;SDS011;7458;49.002;8.472;2022-09-17T00:13:45;1253.97;;;999.90;;
14734;SDS011;7458;49.002;8.472;2022-09-17T00:16:15;1269.35;;;999.90;;
14734;SDS011;7458;49.002;8.472;2022-09-17T00:19:02;1247.43;;;999.90;;
14734;SDS011;7458;49.002;8.472;2022-09-17T00:21:29;1245.97;;;999.90;;
14734;SDS011;7458;49.002;8.472;2022-09-17T00:24:01;1245.57;;;999.90;;
14734;SDS011;7458;49.002;8.472;2022-09-17T00:26:29;1259.82;;;999.90;;
14734;SDS011;7458;49.002;8.472;2022-09-17T00:28:57;1266.55;;;999.90;;
14734;SDS011;7458;49.002;8.472;2022-09-17T00:31:24;1269.93;;;999.90;;
14734;SDS011;7458;49.002;8.472;2022-09-17T00:33:50;1251.35;;;999.90;;
14734;SDS011;7458;49.002;8.472;2022-09-17T00:36:16;1247.43;;;999.90;;
14734;SDS011;7458;49.002;8.472;2022-09-17T00:38:46;1251.43;;;999.90;;
14734;SDS011;7458;49.002;8.472;2022-09-17T00:41:21;1255.45;;;999.90;;
14734;SDS011;7458;49.002;8.472;2022-09-17T00:43:51;1250.03;;;999.90;;
14734;SDS011;7458;49.002;8.472;2022-09-17T00:48:50;1264.72;;;999.90;;
14734;SDS011;7458;49.002;8.472;2022-09-17T00:51:21;1250.70;;;999.90;;
14734;SDS011;7458;49.002;8.472;2022-09-17T00:54:05;1250.75;;;999.90;;
14734;SDS011;7458;49.002;8.472;2022-09-17T00:56:35;1251.43;;;999.90;;
14734;SDS011;7458;49.002;8.472;2022-09-17T00:59:04;1288.63;;;999.90;;
14734;SDS011;7458;49.002;8.472;2022-09-17T01:01:32;1256.85;;;999.90;;
14734;SDS011;7458;49.002;8.472;2022-09-17T01:03:58;1245.82;;;999.90;;
14734;SDS011;7458;49.002;8.472;2022-09-17T01:09:21;2.20;;;1.45;;
14734;SDS011;7458;49.002;8.472;2022-09-17T01:15:04;2.30;;;1.42;;
14734;SDS011;7458;49.002;8.472;2022-09-17T01:47:15;3.13;;;2.03;;
14734;SDS011;7458;49.002;8.472;2022-09-17T01:50:02;4.38;;;2.13;;
14734;SDS011;7458;49.002;8.472;2022-09-17T01:52:36;5.97;;;2.03;;
14734;SDS011;7458;49.002;8.472;2022-09-17T01:55:08;3.47;;;1.75;;
14734;SDS011;7458;49.002;8.472;2022-09-17T01:57:41;6.15;;;2.03;;
14734;SDS011;7458;49.002;8.472;2022-09-17T02:00:20;2.67;;;1.40;;
14734;SDS011;7458;49.002;8.472;2022-09-17T02:03:01;2.95;;;1.80;;
14734;SDS011;7458;49.002;8.472;2022-09-17T02:08:25;3.67;;;2.17;;
14734;SDS011;7458;49.002;8.472;2022-09-17T02:11:06;3.15;;;2.42;;
14734;SDS011;7458;49.002;8.472;2022-09-17T02:16:26;2.92;;;1.70;;
14734;SDS011;7458;49.002;8.472;2022-09-17T02:19:08;7.47;;;1.92;;
14734;SDS011;7458;49.002;8.472;2022-09-17T02:21:44;4.88;;;1.75;;
14734;SDS011;7458;49.002;8.472;2022-09-17T02:24:36;8.30;;;1.83;;
14734;SDS011;7458;49.002;8.472;2022-09-17T02:28:04;1.88;;;1.45;;
14734;SDS011;7458;49.002;8.472;2022-09-17T02:30:37;4.93;;;1.80;;
14734;SDS011;7458;49.002;8.472;2022-09-17T02:33:04;3.20;;;2.17;;
14734;SDS011;7458;49.002;8.472;2022-09-17T02:35:36;4.03;;;1.73;;
14734;SDS011;7458;49.002;8.472;2022-09-17T02:38:03;2.80;;;2.10;;
14734;SDS011;7458;49.002;8.472;2022-09-17T02:40:30;5.32;;;2.00;;
14734;SDS011;7458;49.002;8.472;2022-09-17T02:46:26;5.10;;;2.15;;
14734;SDS011;7458;49.002;8.472;2022-09-17T02:49:34;8.27;;;1.70;;
14734;SDS011;7458;49.002;8.472;2022-09-17T02:55:11;4.32;;;2.10;;
14734;SDS011;7458;49.002;8.472;2022-09-17T02:57:55;3.45;;;2.25;;
14734;SDS011;7458;49.002;8.472;2022-09-17T03:00:53;3.50;;;2.38;;
14734;SDS011;7458;49.002;8.472;2022-09-17T03:03:29;5.55;;;2.35;;
14734;SDS011;7458;49.002;8.472;2022-09-17T03:06:01;4.15;;;2.22;;
14734;SDS011;7458;49.002;8.472;2022-09-17T03:08:31;2.20;;;1.80;;
14734;SDS011;7458;49.002;8.472;2022-09-17T03:11:01;4.95;;;2.17;;
14734;SDS011;7458;49.002;8.472;2022-09-17T03:13:29;8.45;;;2.13;;
14734;SDS011;7458;49.002;8.472;2022-09-17T03:15:55;2.75;;;2.08;;
14734;SDS011;7458;49.002;8.472;2022-09-17T03:18:21;3.63;;;2.22;;
14734;SDS011;7458;49.002;8.472;2022-09-17T03:20:48;3.28;;;2.10;;
14734;SDS011;7458;49.002;8.472;2022-09-17T03:23:14;4.20;;;2.08;;
14734;SDS011;7458;49.002;8.472;2022-09-17T03:25:40;3.67;;;2.13;;
14734;SDS011;7458;49.002;8.472;2022-09-17T03:28:06;3.13;;;1.40;;
14734;SDS011;7458;49.002;8.472;2022-09-17T03:30:31;1.85;;;1.45;;
14734;SDS011;7458;49.002;8.472;2022-09-17T03:32:57;5.43;;;2.10;;
14734;SDS011;7458;49.002;8.472;2022-09-17T03:35:23;8.75;;;2.50;;
14734;SDS011;7458;49.002;8.472;2022-09-17T03:37:49;4.07;;;2.10;;
14734;SDS011;7458;49.002;8.472;2022-09-17T03:40:14;4.93;;;3.17;;
14734;SDS011;7458;49.002;8.472;2022-09-17T03:42:40;3.67;;;2.70;;
14734;SDS011;7458;49.002;8.472;2022-09-17T03:45:06;5.35;;;2.17;;
14734;SDS011;7458;49.002;8.472;2022-09-17T03:47:33;8.07;;;2.60;;
14734;SDS011;7458;49.002;8.472;2022-09-17T03:49:59;5.03;;;1.90;;
14734;SDS011;7458;49.002;8.472;2022-09-17T03:52:24;4.60;;;2.38;;
14734;SDS011;7458;49.002;8.472;2022-09-17T03:54:50;4.25;;;2.20;;
14734;SDS011;7458;49.002;8.472;2022-09-17T03:57:16;10.35;;;2.25;;
14734;SDS011;7458;49.002;8.472;2022-09-17T03:59:41;2.72;;;2.10;;
14734;SDS011;7458;49.002;8.472;2022-09-17T04:02:07;3.33;;;1.92;;
14734;SDS011;7458;49.002;8.472;2022-09-17T04:04:33;3.55;;;2.15;;
14734;SDS011;7458;49.002;8.472;2022-09-17T04:06:58;3.80;;;2.75;;
14734;SDS011;7458;49.002;8.472;2022-09-17T04:09:24;4.60;;;2.72;;
14734;SDS011;7458;49.002;8.472;2022-09-17T04:11:50;6.00;;;2.38;;
14734;SDS011;7458;49.002;8.472;2022-09-17T04:14:18;7.45;;;2.53;;
14734;SDS011;7458;49.002;8.472;2022-09-17T04:16:44;4.57;;;2.10;;
14734;SDS011;7458;49.002;8.472;2022-09-17T04:19:10;3.97;;;2.80;;
14734;SDS011;7458;49.002;8.472;2022-09-17T04:21:36;3.42;;;2.20;;
14734;SDS011;7458;49.002;8.472;2022-09-17T04:24:01;8.35;;;2.83;;
14734;SDS011;7458;49.002;8.472;2022-09-17T04:26:27;3.70;;;2.35;;
14734;SDS011;7458;49.002;8.472;2022-09-17T04:28:53;4.38;;;2.20;;
14734;SDS011;7458;49.002;8.472;2022-09-17T04:31:18;3.92;;;2.95;;
14734;SDS011;7458;49.002;8.472;2022-09-17T04:33:46;3.05;;;1.98;;
14734;SDS011;7458;49.002;8.472;2022-09-17T04:36:12;7.63;;;2.58;;
14734;SDS011;7458;49.002;8.472;2022-09-17T04:38:37;4.50;;;2.78;;
14734;SDS011;7458;49.002;8.472;2022-09-17T04:41:05;5.88;;;2.42;;
14734;SDS011;7458;49.002;8.472;2022-09-17T04:43:32;5.95;;;2.22;;
14734;SDS011;7458;49.002;8.472;2022-09-17T04:45:57;5.75;;;2.47;;
14734;SDS011;7458;49.002;8.472;2022-09-17T04:48:23;6.70;;;2.40;;
14734;SDS011;7458;49.002;8.472;2022-09-17T04:50:49;6.82;;;3.35;;
14734;SDS011;7458;49.002;8.472;2022-09-17T04:53:16;4.05;;;2.75;;
14734;SDS011;7458;49.002;8.472;2022-09-17T04:55:42;4.82;;;2.60;;
14734;SDS011;7458;49.002;8.472;2022-09-17T04:58:08;4.88;;;2.67;;
14734;SDS011;7458;49.002;8.472;2022-09-17T05:00:35;5.28;;;3.05;;
14734;SDS011;7458;49.002;8.472;2022-09-17T05:03:01;9.18;;;3.58;;
14734;SDS011;7458;49.002;8.472;2022-09-17T05:05:28;6.07;;;3.58;;
14734;SDS011;7458;49.002;8.472;2022-09-17T05:07:53;4.63;;;2.63;;
14734;SDS011;7458;49.002;8.472;2022-09-17T05:10:20;3.47;;;2.38;;
14734;SDS011;7458;49.002;8.472;2022-09-17T05:12:47;11.93;;;3.03;;
14734;SDS011;7458;49.002;8.472;2022-09-17T05:15:18;7.68;;;3.30;;
14734;SDS011;7458;49.002;8.472;2022-09-17T05:17:45;6.75;;;2.88;;
14734;SDS011;7458;49.002;8.472;2022-09-17T05:20:12;10.32;;;3.38;;
14734;SDS011;7458;49.002;8.472;2022-09-17T05:22:45;8.90;;;2.97;;
14734;SDS011;7458;49.002;8.472;2022-09-17T05:25:16;9.65;;;3.28;;
14734;SDS011;7458;49.002;8.472;2022-09-17T05:27:48;6.10;;;2.47;;
14734;SDS011;7458;49.002;8.472;2022-09-17T05:30:14;4.93;;;2.75;;
14734;SDS011;7458;49.002;8.472;2022-09-17T05:32:39;5.25;;;3.08;;
14734;SDS011;7458;49.002;8.472;2022-09-17T05:35:05;8.02;;;3.92;;
14734;SDS011;7458;49.002;8.472;2022-09-17T05:37:32;7.47;;;3.78;;
14734;SDS011;7458;49.002;8.472;2022-09-17T05:39:58;6.72;;;4.25;;
14734;SDS011;7458;49.002;8.472;2022-09-17T05:42:24;7.85;;;3.55;;
14734;SDS011;7458;49.002;8.472;2022-09-17T05:44:50;7.63;;;3.83;;
14734;SDS011;7458;49.002;8.472;2022-09-17T05:47:16;8.65;;;3.00;;
14734;SDS011;7458;49.002;8.472;2022-09-17T05:49:42;8.40;;;3.13;;
14734;SDS011;7458;49.002;8.472;2022-09-17T05:52:07;10.00;;;4.63;;
14734;SDS011;7458;49.002;8.472;2022-09-17T05:54:33;8.77;;;4.05;;
14734;SDS011;7458;49.002;8.472;2022-09-17T05:56:59;10.95;;;4.10;;
14734;SDS011;7458;49.002;8.472;2022-09-17T05:59:25;6.78;;;4.07;;
14734;SDS011;7458;49.002;8.472;2022-09-17T06:01:52;5.20;;;4.32;;
14734;SDS011;7458;49.002;8.472;2022-09-17T06:04:17;11.63;;;4.65;;
14734;SDS011;7458;49.002;8.472;2022-09-17T06:06:43;9.27;;;4.20;;
14734;SDS011;7458;49.002;8.472;2022-09-17T06:09:09;5.88;;;4.30;;
14734;SDS011;7458;49.002;8.472;2022-09-17T06:11:35;9.70;;;4.70;;
14734;SDS011;7458;49.002;8.472;2022-09-17T06:14:02;5.38;;;4.55;;
14734;SDS011;7458;49.002;8.472;2022-09-17T06:16:28;7.85;;;4.97;;
14734;SDS011;7458;49.002;8.472;2022-09-17T06:18:53;11.60;;;6.20;;
14734;SDS011;7458;49.002;8.472;2022-09-17T06:21:20;11.10;;;4.90;;
14734;SDS011;7458;49.002;8.472;2022-09-17T06:23:47;9.43;;;4.90;;
14734;SDS011;7458;49.002;8.472;2022-09-17T06:26:16;10.90;;;5.63;;
14734;SDS011;7458;49.002;8.472;2022-09-17T06:28:42;7.72;;;5.18;;
14734;SDS011;7458;49.002;8.472;2022-09-17T06:31:08;8.55;;;5.55;;
14734;SDS011;7458;49.002;8.472;2022-09-17T06:33:36;20.27;;;5.95;;
14734;SDS011;7458;49.002;8.472;2022-09-17T06:36:06;7.88;;;5.80;;
14734;SDS011;7458;49.002;8.472;2022-09-17T06:38:36;10.07;;;5.72;;
14734;SDS011;7458;49.002;8.472;2022-09-17T06:41:02;6.97;;;4.97;;
14734;SDS011;7458;49.002;8.472;2022-09-17T06:43:28;14.02;;;5.93;;
14734;SDS011;7458;49.002;8.472;2022-09-17T06:45:55;13.68;;;6.50;;
14734;SDS011;7458;49.002;8.472;2022-09-17T06:48:27;8.98;;;6.43;;
14734;SDS011;7458;49.002;8.472;2022-09-17T06:50:55;8.60;;;7.70;;
14734;SDS011;7458;49.002;8.472;2022-09-17T06:53:26;8.57;;;7.68;;
14734;SDS011;7458;49.002;8.472;2022-09-17T06:55:55;9.90;;;7.45;;
14734;SDS011;7458;49.002;8.472;2022-09-17T06:58:22;8.07;;;7.07;;
14734;SDS011;7458;49.002;8.472;2022-09-17T07:00:49;14.80;;;7.88;;
14734;SDS011;7458;49.002;8.472;2022-09-17T07:03:15;11.00;;;7.53;;
14734;SDS011;7458;49.002;8.472;2022-09-17T07:05:42;15.07;;;7.53;;
14734;SDS011;7458;49.002;8.472;2022-09-17T07:08:09;7.78;;;6.68;;
14734;SDS011;7458;49.002;8.472;2022-09-17T07:10:35;9.23;;;6.85;;
14734;SDS011;7458;49.002;8.472;2022-09-17T07:13:01;8.95;;;7.20;;
14734;SDS011;7458;49.002;8.472;2022-09-17T07:15:28;10.00;;;6.60;;
14734;SDS011;7458;49.002;8.472;2022-09-17T07:17:54;9.93;;;7.20;;
14734;SDS011;7458;49.002;8.472;2022-09-17T07:20:20;12.15;;;6.97;;
14734;SDS011;7458;49.002;8.472;2022-09-17T07:22:53;7.28;;;6.57;;
14734;SDS011;7458;49.002;8.472;2022-09-17T07:25:21;18.35;;;6.85;;
14734;SDS011;7458;49.002;8.472;2022-09-17T07:27:51;13.77;;;7.13;;
14734;SDS011;7458;49.002;8.472;2022-09-17T07:30:18;8.38;;;6.45;;
14734;SDS011;7458;49.002;8.472;2022-09-17T07:32:45;11.05;;;7.43;;
14734;SDS011;7458;49.002;8.472;2022-09-17T07:35:11;12.52;;;7.00;;
14734;SDS011;7458;49.002;8.472;2022-09-17T07:37:37;11.48;;;7.68;;
14734;SDS011;7458;49.002;8.472;2022-09-17T07:40:04;8.35;;;6.63;;
14734;SDS011;7458;49.002;8.472;2022-09-17T07:42:31;9.95;;;6.75;;
14734;SDS011;7458;49.002;8.472;2022-09-17T07:44:58;7.28;;;5.93;;
14734;SDS011;7458;49.002;8.472;2022-09-17T07:47:23;6.85;;;6.15;;
14734;SDS011;7458;49.002;8.472;2022-09-17T07:49:49;10.35;;;5.60;;
14734;SDS011;7458;49.002;8.472;2022-09-17T07:52:15;6.95;;;6.25;;
14734;SDS011;7458;49.002;8.472;2022-09-17T07:54:40;10.13;;;6.82;;
14734;SDS011;7458;49.002;8.472;2022-09-17T07:57:06;6.20;;;5.60;;
14734;SDS011;7458;49.002;8.472;2022-09-17T07:59:32;11.57;;;6.72;;
14734;SDS011;7458;49.002;8.472;2022-09-17T08:01:58;8.02;;;5.25;;
14734;SDS011;7458;49.002;8.472;2022-09-17T08:04:23;11.05;;;5.57;;
14734;SDS011;7458;49.002;8.472;2022-09-17T08:06:49;6.43;;;5.80;;
14734;SDS011;7458;49.002;8.472;2022-09-17T08:09:15;11.52;;;6.18;;
14734;SDS011;7458;49.002;8.472;2022-09-17T08:11:42;7.07;;;6.00;;
14734;SDS011;7458;49.002;8.472;2022-09-17T08:14:13;8.65;;;6.13;;
14734;SDS011;7458;49.002;8.472;2022-09-17T08:16:39;8.38;;;6.18;;
14734;SDS011;7458;49.002;8.472;2022-09-17T08:19:05;7.10;;;5.13;;
14734;SDS011;7458;49.002;8.472;2022-09-17T08:21:34;13.20;;;5.55;;
14734;SDS011;7458;49.002;8.472;2022-09-17T08:24:00;7.47;;;5.22;;
14734;SDS011;7458;49.002;8.472;2022-09-17T08:26:26;9.00;;;5.68;;
14734;SDS011;7458;49.002;8.472;2022-09-17T08:28:52;10.85;;;5.53;;
14734;SDS011;7458;49.002;8.472;2022-09-17T08:31:20;7.07;;;4.60;;
14734;SDS011;7458;49.002;8.472;2022-09-17T08:33:49;7.82;;;5.13;;
14734;SDS011;7458;49.002;8.472;2022-09-17T08:36:15;6.97;;;4.60;;
14734;SDS011;7458;49.002;8.472;2022-09-17T08:38:45;9.13;;;5.20;;
14734;SDS011;7458;49.002;8.472;2022-09-17T08:49:26;6.20;;;4.88;;
14734;SDS011;7458;49.002;8.472;2022-09-17T08:55:27;11.70;;;5.07;;
14734;SDS011;7458;49.002;8.472;2022-09-17T09:01:39;6.07;;;4.70;;
14734;SDS011;7458;49.002;8.472;2022-09-17T09:04:19;14.30;;;4.65;;
14734;SDS011;7458;49.002;8.472;2022-09-17T09:07:22;6.32;;;4.45;;
14734;SDS011;7458;49.002;8.472;2022-09-17T09:10:11;6.50;;;4.82;;
14734;SDS011;7458;49.002;8.472;2022-09-17T09:12:46;9.75;;;5.55;;
14734;SDS011;7458;49.002;8.472;2022-09-17T09:18:02;9.73;;;4.18;;
14734;SDS011;7458;49.002;8.472;2022-09-17T09:26:40;7.50;;;4.55;;
14734;SDS011;7458;49.002;8.472;2022-09-17T09:35:43;7.72;;;4.07;;
14734;SDS011;7458;49.002;8.472;2022-09-17T09:38:24;4.90;;;2.95;;
14734;SDS011;7458;49.002;8.472;2022-09-17T09:46:20;12.85;;;3.35;;
14734;SDS011;7458;49.002;8.472;2022-09-17T09:49:09;7.20;;;3.05;;
14734;SDS011;7458;49.002;8.472;2022-09-17T09:55:24;3.95;;;3.28;;
14734;SDS011;7458;49.002;8.472;2022-09-17T10:06:04;8.07;;;3.97;;
14734;SDS011;7458;49.002;8.472;2022-09-17T10:08:39;2.53;;;2.00;;
14734;SDS011;7458;49.002;8.472;2022-09-17T10:13:51;7.95;;;2.60;;
14734;SDS011;7458;49.002;8.472;2022-09-17T10:16:24;5.55;;;2.40;;
14734;SDS011;7458;49.002;8.472;2022-09-17T10:24:14;5.20;;;2.95;;
14734;SDS011;7458;49.002;8.472;2022-09-17T10:26:59;13.02;;;4.13;;
14734;SDS011;7458;49.002;8.472;2022-09-17T10:29:28;4.20;;;3.05;;
14734;SDS011;7458;49.002;8.472;2022-09-17T10:31:55;6.45;;;3.25;;
14734;SDS011;7458;49.002;8.472;2022-09-17T10:34:26;8.77;;;3.00;;
14734;SDS011;7458;49.002;8.472;2022-09-17T10:36:55;5.75;;;2.55;;
14734;SDS011;7458;49.002;8.472;2022-09-17T10:42:11;5.72;;;3.40;;
14734;SDS011;7458;49.002;8.472;2022-09-17T10:45:03;5.80;;;2.38;;
14734;SDS011;7458;49.002;8.472;2022-09-17T10:47:29;6.05;;;2.88;;
14734;SDS011;7458;49.002;8.472;2022-09-17T10:50:17;5.57;;;3.75;;
14734;SDS011;7458;49.002;8.472;2022-09-17T10:52:52;5.55;;;2.75;;
14734;SDS011;7458;49.002;8.472;2022-09-17T10:58:26;5.68;;;2.65;;
14734;SDS011;7458;49.002;8.472;2022-09-17T11:18:20;6.75;;;3.58;;
14734;SDS011;7458;49.002;8.472;2022-09-17T11:26:57;9.05;;;4.60;;
14734;SDS011;7458;49.002;8.472;2022-09-17T11:33:03;4.72;;;2.90;;
14734;SDS011;7458;49.002;8.472;2022-09-17T11:35:52;10.30;;;4.05;;
14734;SDS011;7458;49.002;8.472;2022-09-17T11:41:19;7.05;;;3.70;;
14734;SDS011;7458;49.002;8.472;2022-09-17T11:44:08;6.05;;;3.90;;
14734;SDS011;7458;49.002;8.472;2022-09-17T11:46:51;8.18;;;3.45;;
14734;SDS011;7458;49.002;8.472;2022-09-17T11:55:36;9.07;;;3.10;;
14734;SDS011;7458;49.002;8.472;2022-09-17T11:58:28;4.63;;;1.85;;
14734;SDS011;7458;49.002;8.472;2022-09-17T12:01:07;7.15;;;3.28;;
14734;SDS011;7458;49.002;8.472;2022-09-17T12:03:48;3.08;;;1.98;;
14734;SDS011;7458;49.002;8.472;2022-09-17T12:06:45;5.22;;;1.67;;
14734;SDS011;7458;49.002;8.472;2022-09-17T12:09:19;9.18;;;2.10;;
14734;SDS011;7458;49.002;8.472;2022-09-17T12:17:22;2.65;;;1.50;;
14734;SDS011;7458;49.002;8.472;2022-09-17T12:20:00;3.45;;;2.28;;
14734;SDS011;7458;49.002;8.472;2022-09-17T12:22:40;2.92;;;1.98;;
14734;SDS011;7458;49.002;8.472;2022-09-17T12:25:12;6.32;;;1.77;;
14734;SDS011;7458;49.002;8.472;2022-09-17T12:30:21;5.65;;;2.55;;
14734;SDS011;7458;49.002;8.472;2022-09-17T12:35:54;6.00;;;2.60;;
14734;SDS011;7458;49.002;8.472;2022-09-17T12:42:16;6.15;;;2.80;;
14734;SDS011;7458;49.002;8.472;2022-09-17T12:56:02;5.55;;;2.80;;
14734;SDS011;7458;49.002;8.472;2022-09-17T13:04:10;5.85;;;2.67;;
14734;SDS011;7458;49.002;8.472;2022-09-17T13:15:31;5.38;;;2.90;;
14734;SDS011;7458;49.002;8.472;2022-09-17T13:18:42;4.43;;;2.78;;
14734;SDS011;7458;49.002;8.472;2022-09-17T13:21:51;4.88;;;2.42;;
14734;SDS011;7458;49.002;8.472;2022-09-17T13:24:24;4.95;;;2.50;;
14734;SDS011;7458;49.002;8.472;2022-09-17T13:26:55;7.13;;;2.65;;
14734;SDS011;7458;49.002;8.472;2022-09-17T13:32:12;6.70;;;2.78;;
14734;SDS011;7458;49.002;8.472;2022-09-17T13:40:20;5.68;;;2.33;;
14734;SDS011;7458;49.002;8.472;2022-09-17T13:45:30;4.63;;;2.15;;
14734;SDS011;7458;49.002;8.472;2022-09-17T13:55:39;3.42;;;1.90;;
14734;SDS011;7458;49.002;8.472;2022-09-17T14:19:25;6.78;;;2.08;;
14734;SDS011;7458;49.002;8.472;2022-09-17T14:30:03;7.47;;;5.35;;
14734;SDS011;7458;49.002;8.472;2022-09-17T14:32:57;3.35;;;2.90;;
14734;SDS011;7458;49.002;8.472;2022-09-17T14:38:44;5.22;;;2.50;;
14734;SDS011;7458;49.002;8.472;2022-09-17T14:41:20;6.65;;;2.63;;
14734;SDS011;7458;49.002;8.472;2022-09-17T14:46:29;3.17;;;2.08;;
14734;SDS011;7458;49.002;8.472;2022-09-17T14:51:52;3.45;;;2.38;;
14734;SDS011;7458;49.002;8.472;2022-09-17T14:54:26;8.68;;;3.33;;
14734;SDS011;7458;49.002;8.472;2022-09-17T14:59:49;5.53;;;2.40;;
14734;SDS011;7458;49.002;8.472;2022-09-17T15:02:34;8.10;;;2.53;;
14734;SDS011;7458;49.002;8.472;2022-09-17T15:05:01;5.45;;;1.90;;
14734;SDS011;7458;49.002;8.472;2022-09-17T15:07:39;3.42;;;1.77;;
14734;SDS011;7458;49.002;8.472;2022-09-17T15:10:06;7.68;;;2.25;;
14734;SDS011;7458;49.002;8.472;2022-09-17T15:12:43;7.43;;;2.65;;
14734;SDS011;7458;49.002;8.472;2022-09-17T15:15:21;2.60;;;1.65;;
14734;SDS011;7458;49.002;8.472;2022-09-17T15:17:51;3.70;;;1.88;;
14734;SDS011;7458;49.002;8.472;2022-09-17T15:20:19;3.70;;;2.22;;
14734;SDS011;7458;49.002;8.472;2022-09-17T15:22:54;2.80;;;1.80;;
14734;SDS011;7458;49.002;8.472;2022-09-17T15:25:29;5.10;;;2.38;;
14734;SDS011;7458;49.002;8.472;2022-09-17T15:27:56;5.00;;;2.53;;
14734;SDS011;7458;49.002;8.472;2022-09-17T15:30:28;4.13;;;3.25;;
14734;SDS011;7458;49.002;8.472;2022-09-17T15:32:58;5.05;;;2.30;;
14734;SDS011;7458;49.002;8.472;2022-09-17T15:35:28;5.47;;;2.75;;
14734;SDS011;7458;49.002;8.472;2022-09-17T15:37:58;2.58;;;1.80;;
14734;SDS011;7458;49.002;8.472;2022-09-17T15:43:15;3.90;;;2.00;;
14734;SDS011;7458;49.002;8.472;2022-09-17T15:45:55;4.40;;;2.60;;
14734;SDS011;7458;49.002;8.472;2022-09-17T15:48:38;2.80;;;2.17;;
14734;SDS011;7458;49.002;8.472;2022-09-17T15:51:11;2.75;;;2.00;;
14734;SDS011;7458;49.002;8.472;2022-09-17T15:54:04;5.78;;;1.85;;
14734;SDS011;7458;49.002;8.472;2022-09-17T15:56:34;5.25;;;2.25;;
14734;SDS011;7458;49.002;8.472;2022-09-17T15:59:21;5.55;;;1.90;;
14734;SDS011;7458;49.002;8.472;2022-09-17T16:01:57;5.53;;;2.05;;
14734;SDS011;7458;49.002;8.472;2022-09-17T16:04:26;4.22;;;2.25;;
14734;SDS011;7458;49.002;8.472;2022-09-17T16:12:10;5.63;;;2.58;;
14734;SDS011;7458;49.002;8.472;2022-09-17T16:14:42;3.67;;;2.40;;
14734;SDS011;7458;49.002;8.472;2022-09-17T16:17:21;6.70;;;2.38;;
14734;SDS011;7458;49.002;8.472;2022-09-17T16:22:21;8.18;;;3.03;;
14734;SDS011;7458;49.002;8.472;2022-09-17T16:24:47;4.72;;;2.92;;
14734;SDS011;7458;49.002;8.472;2022-09-17T16:27:15;12.60;;;4.13;;
14734;SDS011;7458;49.002;8.472;2022-09-17T16:29:48;7.20;;;3.13;;
14734;SDS011;7458;49.002;8.472;2022-09-17T16:32:19;7.43;;;2.33;;
14734;SDS011;7458;49.002;8.472;2022-09-17T16:34:45;6.43;;;3.55;;
14734;SDS011;7458;49.002;8.472;2022-09-17T16:37:11;6.88;;;3.78;;
14734;SDS011;7458;49.002;8.472;2022-09-17T16:39:36;5.13;;;2.90;;
14734;SDS011;7458;49.002;8.472;2022-09-17T16:42:02;6.78;;;2.83;;
14734;SDS011;7458;49.002;8.472;2022-09-17T16:44:28;5.55;;;2.55;;
14734;SDS011;7458;49.002;8.472;2022-09-17T16:46:54;9.52;;;3.28;;
14734;SDS011;7458;49.002;8.472;2022-09-17T16:49:19;8.73;;;3.30;;
14734;SDS011;7458;49.002;8.472;2022-09-17T16:51:45;5.65;;;3.70;;
14734;SDS011;7458;49.002;8.472;2022-09-17T16:54:11;7.93;;;3.15;;
14734;SDS011;7458;49.002;8.472;2022-09-17T16:56:36;6.00;;;3.08;;
14734;SDS011;7458;49.002;8.472;2022-09-17T16:59:02;3.60;;;2.85;;
14734;SDS011;7458;49.002;8.472;2022-09-17T17:01:28;6.15;;;2.75;;
14734;SDS011;7458;49.002;8.472;2022-09-17T17:03:53;3.80;;;2.10;;
14734;SDS011;7458;49.002;8.472;2022-09-17T17:06:23;5.32;;;2.63;;
14734;SDS011;7458;49.002;8.472;2022-09-17T17:08:49;8.48;;;3.15;;
14734;SDS011;7458;49.002;8.472;2022-09-17T17:11:15;6.57;;;3.22;;
14734;SDS011;7458;49.002;8.472;2022-09-17T17:13:41;6.28;;;3.30;;
14734;SDS011;7458;49.002;8.472;2022-09-17T17:16:09;5.82;;;3.17;;
14734;SDS011;7458;49.002;8.472;2022-09-17T17:18:37;11.32;;;3.85;;
14734;SDS011;7458;49.002;8.472;2022-09-17T17:21:07;9.60;;;6.00;;
14734;SDS011;7458;49.002;8.472;2022-09-17T17:23:37;6.75;;;3.88;;
14734;SDS011;7458;49.002;8.472;2022-09-17T17:26:03;6.03;;;3.90;;
14734;SDS011;7458;49.002;8.472;2022-09-17T17:28:30;4.70;;;4.00;;
14734;SDS011;7458;49.002;8.472;2022-09-17T17:30:59;6.75;;;3.67;;
14734;SDS011;7458;49.002;8.472;2022-09-17T17:33:25;5.75;;;3.38;;
14734;SDS011;7458;49.002;8.472;2022-09-17T17:35:50;7.20;;;4.15;;
14734;SDS011;7458;49.002;8.472;2022-09-17T17:38:16;6.97;;;3.30;;
14734;SDS011;7458;49.002;8.472;2022-09-17T17:40:43;6.70;;;3.90;;
14734;SDS011;7458;49.002;8.472;2022-09-17T17:43:09;5.75;;;4.05;;
14734;SDS011;7458;49.002;8.472;2022-09-17T17:45:39;9.65;;;4.20;;
14734;SDS011;7458;49.002;8.472;2022-09-17T17:48:05;8.02;;;3.88;;
14734;SDS011;7458;49.002;8.472;2022-09-17T17:50:31;9.80;;;4.65;;
14734;SDS011;7458;49.002;8.472;2022-09-17T17:52:57;7.10;;;4.30;;
14734;SDS011;7458;49.002;8.472;2022-09-17T17:55:23;7.75;;;4.10;;
14734;SDS011;7458;49.002;8.472;2022-09-17T17:57:56;5.93;;;3.88;;
14734;SDS011;7458;49.002;8.472;2022-09-17T18:00:23;4.65;;;3.22;;
14734;SDS011;7458;49.002;8.472;2022-09-17T18:02:49;8.13;;;5.00;;
14734;SDS011;7458;49.002;8.472;2022-09-17T18:05:15;11.00;;;4.00;;
14734;SDS011;7458;49.002;8.472;2022-09-17T18:07:41;5.25;;;4.00;;
14734;SDS011;7458;49.002;8.472;2022-09-17T18:10:07;6.43;;;3.88;;
14734;SDS011;7458;49.002;8.472;2022-09-17T18:12:33;11.48;;;4.15;;
14734;SDS011;7458;49.002;8.472;2022-09-17T18:15:00;5.50;;;4.20;;
14734;SDS011;7458;49.002;8.472;2022-09-17T18:17:28;16.15;;;14.55;;
14734;SDS011;7458;49.002;8.472;2022-09-17T18:19:55;5.38;;;3.65;;
14734;SDS011;7458;49.002;8.472;2022-09-17T18:22:21;10.43;;;4.45;;
14734;SDS011;7458;49.002;8.472;2022-09-17T18:24:47;5.07;;;3.00;;
14734;SDS011;7458;49.002;8.472;2022-09-17T18:27:13;4.32;;;2.00;;
14734;SDS011;7458;49.002;8.472;2022-09-17T18:29:39;4.88;;;2.20;;
14734;SDS011;7458;49.002;8.472;2022-09-17T18:32:05;4.53;;;2.38;;
14734;SDS011;7458;49.002;8.472;2022-09-17T18:34:30;7.32;;;2.22;;
14734;SDS011;7458;49.002;8.472;2022-09-17T18:36:56;10.20;;;2.08;;
14734;SDS011;7458;49.002;8.472;2022-09-17T18:39:22;3.75;;;2.25;;
14734;SDS011;7458;49.002;8.472;2022-09-17T18:41:48;5.55;;;2.10;;
14734;SDS011;7458;49.002;8.472;2022-09-17T18:44:14;3.35;;;2.05;;
14734;SDS011;7458;49.002;8.472;2022-09-17T18:46:42;6.32;;;1.95;;
14734;SDS011;7458;49.002;8.472;2022-09-17T18:49:09;4.82;;;2.30;;
14734;SDS011;7458;49.002;8.472;2022-09-17T18:51:34;2.97;;;1.48;;
14734;SDS011;7458;49.002;8.472;2022-09-17T18:54:02;2.78;;;1.85;;
14734;SDS011;7458;49.002;8.472;2022-09-17T18:56:28;5.47;;;2.30;;
14734;SDS011;7458;49.002;8.472;2022-09-17T18:58:57;5.78;;;2.78;;
14734;SDS011;7458;49.002;8.472;2022-09-17T19:01:25;2.65;;;1.88;;
14734;SDS011;7458;49.002;8.472;2022-09-17T19:03:54;5.20;;;2.42;;
14734;SDS011;7458;49.002;8.472;2022-09-17T19:06:21;4.88;;;2.55;;
14734;SDS011;7458;49.002;8.472;2022-09-17T19:08:48;7.63;;;2.67;;
14734;SDS011;7458;49.002;8.472;2022-09-17T19:11:15;3.20;;;2.08;;
14734;SDS011;7458;49.002;8.472;2022-09-17T19:13:41;3.92;;;1.95;;
14734;SDS011;7458;49.002;8.472;2022-09-17T19:16:10;7.00;;;3.28;;
14734;SDS011;7458;49.002;8.472;2022-09-17T19:18:38;3.88;;;2.97;;
14734;SDS011;7458;49.002;8.472;2022-09-17T19:21:06;5.00;;;2.03;;
14734;SDS011;7458;49.002;8.472;2022-09-17T19:23:43;7.35;;;2.92;;
14734;SDS011;7458;49.002;8.472;2022-09-17T19:26:12;6.68;;;2.40;;
14734;SDS011;7458;49.002;8.472;2022-09-17T19:28:40;5.50;;;1.85;;
14734;SDS011;7458;49.002;8.472;2022-09-17T19:31:07;3.75;;;2.30;;
14734;SDS011;7458;49.002;8.472;2022-09-17T19:33:36;6.20;;;2.58;;